SBI7520 ZWWW-ZJSY

Flight info

Callsign SBI7520
Flight time N/A
Altitude 37100
Route ZWWW N0440F371 FKG01D FKG W192 LUPRO V116 ESDEX W191 DNC QNX V86 BSE R339 WUY W169 RUNEG V41 DABUB DAB8ZA SYS501 SYS504 FF26 RW26 ZJSY
Aircraft B738/M-SDGIWZ/S

Departure

Time 2026-04-27 21:56
Airport Ürümqi Tianshan International Airport (ZWWW)

Arrival

Time N/A
Airport Sanya Phoenix International Airport (ZJSY)
Time Latitude Longitude Altitude Speed Heading
2026-04-27 21:43 43.89740 87.46400 2134 ft 0 kts 180°
2026-04-27 21:52 43.89752 87.46400 2134 ft 2 kts 180°
2026-04-27 21:52 43.89778 87.46400 2134 ft 3 kts 189°
2026-04-27 21:53 43.89788 87.46423 2134 ft 1 kts 259°
2026-04-27 21:53 43.89784 87.46333 2134 ft 18 kts 269°
2026-04-27 21:53 43.89784 87.46118 2134 ft 23 kts 269°
2026-04-27 21:53 43.89864 87.45985 2134 ft 19 kts 347°
2026-04-27 21:54 43.89997 87.45935 2134 ft 20 kts 343°
2026-04-27 21:54 43.90144 87.45874 2134 ft 23 kts 341°
2026-04-27 21:54 43.90171 87.45700 2134 ft 22 kts 252°
2026-04-27 21:54 43.90123 87.45478 2134 ft 25 kts 253°
2026-04-27 21:55 43.90168 87.45319 2134 ft 17 kts 339°
2026-04-27 21:55 43.90264 87.45331 2134 ft 13 kts 57°
2026-04-27 21:55 43.90320 87.45570 2134 ft 55 kts 72°
2026-04-27 21:55 43.90492 87.46388 2134 ft 119 kts 73°
2026-04-27 21:56 43.90779 87.47736 2136 ft 170 kts 73°
2026-04-27 21:56 43.91534 87.51268 2889 ft 203 kts 73°
2026-04-27 21:56 43.92041 87.53070 3611 ft 204 kts 63°
2026-04-27 21:57 43.92704 87.54899 3855 ft 227 kts 63°
2026-04-27 21:57 43.93387 87.56992 4277 ft 241 kts 65°
2026-04-27 21:57 43.94085 87.59103 4976 ft 243 kts 63°
2026-04-27 21:57 43.94822 87.61212 5499 ft 251 kts 63°
2026-04-27 21:58 43.95575 87.63409 6173 ft 252 kts 63°
2026-04-27 21:58 43.96499 87.65426 6810 ft 253 kts 45°
2026-04-27 21:58 43.97800 87.67046 7497 ft 252 kts 42°
2026-04-27 21:58 43.99029 87.68797 7964 ft 260 kts 46°
2026-04-27 21:59 44.00235 87.70695 8585 ft 261 kts 47°
2026-04-27 21:59 44.01427 87.72578 9188 ft 261 kts 47°
2026-04-27 21:59 44.02625 87.74487 9669 ft 266 kts 47°
2026-04-27 21:59 44.03826 87.76421 10201 ft 268 kts 47°
2026-04-27 22:00 44.05063 87.78416 10679 ft 272 kts 47°
2026-04-27 22:00 44.06296 87.80406 11176 ft 275 kts 47°
2026-04-27 22:00 44.07541 87.82420 11636 ft 278 kts 47°
2026-04-27 22:00 44.08813 87.84476 12098 ft 281 kts 47°
2026-04-27 22:01 44.10081 87.86532 12563 ft 283 kts 47°
2026-04-27 22:01 44.11372 87.88627 13024 ft 285 kts 47°
2026-04-27 22:01 44.12659 87.90717 13468 ft 287 kts 47°
2026-04-27 22:01 44.13962 87.92836 13903 ft 290 kts 47°
2026-04-27 22:02 44.15258 87.94945 14323 ft 291 kts 47°
2026-04-27 22:02 44.16576 87.97089 14750 ft 293 kts 50°
2026-04-27 22:02 44.17840 87.99338 15128 ft 295 kts 59°
2026-04-27 22:02 44.18563 88.01977 15466 ft 296 kts 83°
2026-04-27 22:03 44.18469 88.04791 15870 ft 294 kts 104°
2026-04-27 22:03 44.17693 88.07429 16207 ft 295 kts 124°
2026-04-27 22:03 44.16258 88.09428 16492 ft 297 kts 149°
2026-04-27 22:03 44.14354 88.10446 16870 ft 296 kts 171°
2026-04-27 22:04 44.12311 88.10844 17228 ft 297 kts 169°
2026-04-27 22:04 44.10360 88.11865 17404 ft 304 kts 144°
2026-04-27 22:04 44.08992 88.14001 17760 ft 303 kts 116°
2026-04-27 22:04 44.08391 88.16821 18130 ft 302 kts 102°
2026-04-27 22:05 44.07836 88.19630 18354 ft 307 kts 112°
2026-04-27 22:05 44.06901 88.22301 18674 ft 307 kts 119°
2026-04-27 22:05 44.05858 88.24875 18993 ft 308 kts 120°
2026-04-27 22:05 44.04783 88.27486 19252 ft 310 kts 120°
2026-04-27 22:06 44.03701 88.30054 19565 ft 311 kts 121°
2026-04-27 22:06 44.02601 88.32637 19839 ft 312 kts 121°
2026-04-27 22:06 44.01486 88.35246 20117 ft 314 kts 121°
2026-04-27 22:06 44.00373 88.37839 20385 ft 315 kts 121°
2026-04-27 22:07 43.99250 88.40448 20645 ft 316 kts 121°
2026-04-27 22:07 43.98125 88.43055 20899 ft 317 kts 121°
2026-04-27 22:07 43.96979 88.45705 20960 ft 326 kts 121°
2026-04-27 22:07 43.95787 88.48458 21060 ft 333 kts 121°
2026-04-27 22:08 43.94597 88.51206 21247 ft 337 kts 121°
2026-04-27 22:08 43.93389 88.53989 21448 ft 339 kts 121°
2026-04-27 22:08 43.92173 88.56791 21663 ft 342 kts 121°
2026-04-27 22:08 43.90938 88.59629 21899 ft 343 kts 121°
2026-04-27 22:09 43.89706 88.62460 22122 ft 344 kts 121°
2026-04-27 22:09 43.88464 88.65308 22346 ft 345 kts 122°
2026-04-27 22:09 43.87233 88.68130 22569 ft 346 kts 122°
2026-04-27 22:09 43.85986 88.70985 22768 ft 348 kts 122°
2026-04-27 22:10 43.84719 88.73885 22989 ft 348 kts 122°
2026-04-27 22:10 43.83886 88.75789 23121 ft 349 kts 122°
2026-04-27 22:10 43.82220 88.79591 23393 ft 350 kts 122°
2026-04-27 22:10 43.80957 88.82471 23574 ft 352 kts 122°
2026-04-27 22:11 43.79673 88.85398 23727 ft 354 kts 122°
2026-04-27 22:11 43.78393 88.88311 23906 ft 355 kts 122°
2026-04-27 22:11 43.77116 88.91215 24056 ft 357 kts 122°
2026-04-27 22:11 43.75831 88.94134 24207 ft 359 kts 122°
2026-04-27 22:12 43.74523 88.97101 24379 ft 360 kts 122°
2026-04-27 22:12 43.73211 89.00075 24518 ft 363 kts 122°
2026-04-27 22:12 43.71896 89.03054 24667 ft 364 kts 122°
2026-04-27 22:12 43.70590 89.06007 24818 ft 366 kts 122°
2026-04-27 22:13 43.69250 89.09036 24990 ft 366 kts 122°
2026-04-27 22:13 43.67939 89.11997 25146 ft 367 kts 122°
2026-04-27 22:13 43.66606 89.15002 25316 ft 368 kts 122°
2026-04-27 22:13 43.65261 89.18031 25444 ft 369 kts 122°
2026-04-27 22:14 43.63930 89.21027 25605 ft 370 kts 122°
2026-04-27 22:14 43.62573 89.24080 25737 ft 371 kts 122°
2026-04-27 22:14 43.61232 89.27091 25911 ft 371 kts 122°
2026-04-27 22:14 43.59875 89.30134 26042 ft 372 kts 122°
2026-04-27 22:15 43.58509 89.33195 26183 ft 373 kts 122°
2026-04-27 22:15 43.57151 89.36237 26320 ft 374 kts 122°
2026-04-27 22:15 43.55804 89.39250 26442 ft 375 kts 122°
2026-04-27 22:15 43.54448 89.42329 26586 ft 375 kts 121°
2026-04-27 22:16 43.53111 89.45421 26711 ft 376 kts 121°
2026-04-27 22:16 43.51776 89.48502 26827 ft 377 kts 121°
2026-04-27 22:16 43.50428 89.51593 26963 ft 378 kts 121°
2026-04-27 22:16 43.49075 89.54694 27065 ft 379 kts 121°
2026-04-27 22:17 43.47720 89.57796 27185 ft 380 kts 121°
2026-04-27 22:17 43.46350 89.60931 27320 ft 380 kts 121°
2026-04-27 22:17 43.44989 89.64040 27416 ft 381 kts 121°
2026-04-27 22:17 43.43621 89.67162 27531 ft 381 kts 122°
2026-04-27 22:18 43.42258 89.70278 27628 ft 382 kts 122°
2026-04-27 22:18 43.40908 89.73382 27720 ft 383 kts 122°
2026-04-27 22:18 43.39522 89.76531 27814 ft 384 kts 122°
2026-04-27 22:18 43.38131 89.79646 27930 ft 384 kts 122°
2026-04-27 22:19 43.36749 89.82753 28027 ft 384 kts 122°
2026-04-27 22:19 43.33982 89.89075 28208 ft 385 kts 122°
2026-04-27 22:20 43.31211 89.95347 28382 ft 387 kts 122°
2026-04-27 22:20 43.28411 90.01612 28563 ft 387 kts 122°
2026-04-27 22:21 43.25612 90.07940 28727 ft 388 kts 122°
2026-04-27 22:21 43.22803 90.14280 28888 ft 389 kts 122°
2026-04-27 22:22 43.20011 90.20576 29037 ft 391 kts 122°
2026-04-27 22:22 43.17168 90.26901 29207 ft 391 kts 122°
2026-04-27 22:23 43.14323 90.33240 29373 ft 391 kts 122°
2026-04-27 22:23 43.11470 90.39606 29524 ft 392 kts 122°
2026-04-27 22:24 43.08615 90.45940 29672 ft 392 kts 122°
2026-04-27 22:24 43.05763 90.52258 29818 ft 393 kts 122°
2026-04-27 22:25 43.02894 90.58615 29947 ft 394 kts 122°
2026-04-27 22:25 43.00001 90.64972 30084 ft 394 kts 122°
2026-04-27 22:26 42.97134 90.71283 30206 ft 394 kts 123°
2026-04-27 22:26 42.94253 90.77651 30326 ft 394 kts 123°
2026-04-27 22:27 42.91347 90.83997 30427 ft 394 kts 125°
2026-04-27 22:27 42.87812 90.89613 30524 ft 391 kts 142°
2026-04-27 22:28 42.83282 90.93601 30631 ft 387 kts 154°
2026-04-27 22:28 42.78646 90.97244 30729 ft 387 kts 152°
2026-04-27 22:29 42.74013 91.00893 30828 ft 387 kts 153°
2026-04-27 22:29 42.69349 91.04520 30926 ft 387 kts 153°
2026-04-27 22:30 42.64679 91.08139 31026 ft 387 kts 153°
2026-04-27 22:30 42.60032 91.11727 31125 ft 387 kts 152°
2026-04-27 22:31 42.55342 91.15319 31227 ft 387 kts 152°
2026-04-27 22:31 42.53033 91.17086 31363 ft 383 kts 154°
2026-04-27 22:31 42.50717 91.18847 31490 ft 381 kts 155°
2026-04-27 22:32 42.46120 91.22368 31592 ft 380 kts 154°
2026-04-27 22:32 42.41572 91.25912 31704 ft 379 kts 154°
2026-04-27 22:33 42.36995 91.29391 31821 ft 377 kts 155°
2026-04-27 22:33 42.32431 91.32850 31927 ft 376 kts 154°
2026-04-27 22:34 42.27929 91.36309 32029 ft 376 kts 154°
2026-04-27 22:34 42.23402 91.39784 32103 ft 378 kts 154°
2026-04-27 22:35 42.18787 91.43272 32237 ft 383 kts 154°
2026-04-27 22:35 42.14115 91.46770 32347 ft 389 kts 154°
2026-04-27 22:36 42.09359 91.50401 32451 ft 396 kts 154°
2026-04-27 22:36 42.04557 91.54050 32552 ft 402 kts 154°
2026-04-27 22:37 41.99667 91.57752 32653 ft 407 kts 154°
2026-04-27 22:37 41.94716 91.61450 32753 ft 413 kts 154°
2026-04-27 22:38 41.89652 91.65218 32854 ft 418 kts 155°
2026-04-27 22:38 41.84663 91.68956 32951 ft 423 kts 154°
2026-04-27 22:39 41.79535 91.72849 33053 ft 427 kts 154°
2026-04-27 22:39 41.74366 91.76738 33152 ft 431 kts 154°
2026-04-27 22:40 41.69085 91.80663 33253 ft 435 kts 155°
2026-04-27 22:40 41.63993 91.85026 33347 ft 443 kts 142°
2026-04-27 22:40 41.61846 91.87957 33396 ft 448 kts 130°
2026-04-27 22:41 41.60041 91.91394 33456 ft 451 kts 124°
2026-04-27 22:41 41.56678 91.98453 33554 ft 454 kts 125°
2026-04-27 22:42 41.53220 92.05474 33656 ft 457 kts 125°
2026-04-27 22:42 41.49751 92.12616 33763 ft 459 kts 124°
2026-04-27 22:43 41.46304 92.19752 33873 ft 462 kts 124°
2026-04-27 22:43 41.42799 92.26934 33984 ft 464 kts 124°
2026-04-27 22:44 41.39275 92.34144 34096 ft 466 kts 124°
2026-04-27 22:44 41.35761 92.41348 34208 ft 468 kts 124°
2026-04-27 22:45 41.32231 92.48621 34328 ft 469 kts 124°
2026-04-27 22:45 41.28700 92.55889 34446 ft 470 kts 124°
2026-04-27 22:46 41.25129 92.63155 34576 ft 471 kts 124°
2026-04-27 22:46 41.21551 92.70390 34690 ft 471 kts 125°
2026-04-27 22:47 41.17973 92.77626 34816 ft 471 kts 124°
2026-04-27 22:47 41.14420 92.84891 34937 ft 471 kts 124°
2026-04-27 22:48 41.10836 92.92188 35046 ft 472 kts 125°
2026-04-27 22:48 41.07257 92.99435 35160 ft 472 kts 126°
2026-04-27 22:49 41.03663 93.06661 35282 ft 472 kts 127°
2026-04-27 22:49 41.00039 93.13859 35388 ft 472 kts 127°
2026-04-27 22:50 40.96403 93.21114 35490 ft 472 kts 127°
2026-04-27 22:50 40.92792 93.28313 35591 ft 473 kts 127°
2026-04-27 22:51 40.89149 93.35560 35692 ft 473 kts 127°
2026-04-27 22:51 40.85518 93.42770 35791 ft 473 kts 127°
2026-04-27 22:52 40.81895 93.49948 35890 ft 473 kts 127°
2026-04-27 22:52 40.78253 93.57148 35989 ft 473 kts 127°
2026-04-27 22:53 40.74554 93.64321 36087 ft 472 kts 130°
2026-04-27 22:53 40.70473 93.70997 36190 ft 469 kts 134°
2026-04-27 22:54 40.66405 93.77658 36289 ft 469 kts 133°
2026-04-27 22:54 40.62328 93.84386 36389 ft 468 kts 133°
2026-04-27 22:55 40.58286 93.91039 36489 ft 467 kts 133°
2026-04-27 22:55 40.54247 93.97684 36589 ft 466 kts 133°
2026-04-27 22:56 40.50223 94.04296 36688 ft 465 kts 133°
2026-04-27 22:56 40.46198 94.10896 36788 ft 465 kts 133°
2026-04-27 22:57 40.42169 94.17490 36888 ft 464 kts 133°
2026-04-27 22:57 40.38141 94.24070 36989 ft 463 kts 133°
2026-04-27 22:58 40.34130 94.30610 37116 ft 461 kts 133°
2026-04-27 22:58 40.30114 94.37141 37121 ft 463 kts 133°
2026-04-27 22:59 40.26080 94.43687 37120 ft 464 kts 133°
2026-04-27 22:59 40.22050 94.50216 37120 ft 466 kts 133°
2026-04-27 23:00 40.15942 94.60084 37120 ft 468 kts 133°
2026-04-27 23:00 40.11887 94.66715 37119 ft 470 kts 131°
2026-04-27 23:01 40.08517 94.74102 37121 ft 476 kts 120°
2026-04-27 23:01 40.05621 94.81869 37119 ft 477 kts 120°
2026-04-27 23:02 40.02669 94.89571 37120 ft 477 kts 121°
2026-04-27 23:02 39.99728 94.97326 37119 ft 478 kts 121°
2026-04-27 23:03 39.96793 95.05064 37198 ft 477 kts 121°
2026-04-27 23:03 39.93885 95.12764 37201 ft 478 kts 121°
2026-04-27 23:04 39.90946 95.20523 37202 ft 479 kts 121°
2026-04-27 23:04 39.87982 95.28292 37201 ft 480 kts 121°
2026-04-27 23:05 39.85022 95.36045 37266 ft 479 kts 121°
2026-04-27 23:05 39.82060 95.43774 37334 ft 479 kts 121°
2026-04-27 23:06 39.79087 95.51495 37365 ft 480 kts 121°
2026-04-27 23:06 39.76122 95.59262 37359 ft 481 kts 121°
2026-04-27 23:07 39.73150 95.67061 37377 ft 481 kts 122°
2026-04-27 23:07 39.70157 95.74770 37423 ft 480 kts 122°
2026-04-27 23:08 39.67177 95.82519 37440 ft 481 kts 122°
2026-04-27 23:08 39.64211 95.90260 37421 ft 482 kts 122°
2026-04-27 23:09 39.61209 95.98000 37431 ft 481 kts 122°
2026-04-27 23:09 39.58180 96.05725 37444 ft 481 kts 122°
2026-04-27 23:10 39.55172 96.13407 37444 ft 481 kts 122°
2026-04-27 23:10 39.52129 96.21129 37444 ft 480 kts 122°
2026-04-27 23:11 39.49094 96.28769 37444 ft 481 kts 122°
2026-04-27 23:11 39.46044 96.36430 37444 ft 481 kts 122°
2026-04-27 23:12 39.42984 96.44149 37444 ft 481 kts 122°
2026-04-27 23:12 39.39953 96.51842 37444 ft 481 kts 122°
2026-04-27 23:13 39.36903 96.59502 37444 ft 480 kts 122°
2026-04-27 23:13 39.33839 96.67108 37445 ft 481 kts 123°
2026-04-27 23:14 39.30760 96.74764 37444 ft 480 kts 123°
2026-04-27 23:14 39.27721 96.82373 37444 ft 480 kts 123°
2026-04-27 23:15 39.24652 96.90058 37443 ft 481 kts 122°
2026-04-27 23:15 39.21645 96.97675 37444 ft 480 kts 122°
2026-04-27 23:16 39.18619 97.05344 37443 ft 481 kts 123°
2026-04-27 23:16 39.15559 97.13025 37444 ft 482 kts 123°
2026-04-27 23:17 39.12512 97.20670 37444 ft 483 kts 123°
2026-04-27 23:17 39.09431 97.28381 37445 ft 485 kts 123°
2026-04-27 23:18 39.06337 97.36099 37358 ft 488 kts 123°
2026-04-27 23:18 39.03251 97.43784 37364 ft 489 kts 123°
2026-04-27 23:19 39.00127 97.51550 37363 ft 490 kts 123°
2026-04-27 23:19 38.96980 97.59348 37363 ft 491 kts 123°
2026-04-27 23:20 38.93841 97.67108 37365 ft 492 kts 124°
2026-04-27 23:20 38.90696 97.74856 37362 ft 490 kts 124°
2026-04-27 23:21 38.87550 97.82573 37363 ft 491 kts 124°
2026-04-27 23:21 38.84385 97.90314 37364 ft 491 kts 125°
2026-04-27 23:22 38.81203 97.98032 37363 ft 492 kts 125°
2026-04-27 23:22 38.78014 98.05783 37363 ft 492 kts 124°
2026-04-27 23:23 38.74836 98.13545 37362 ft 491 kts 124°
2026-04-27 23:23 38.71670 98.21250 37363 ft 492 kts 124°
2026-04-27 23:24 38.68472 98.28996 37364 ft 492 kts 124°
2026-04-27 23:24 38.65301 98.36678 37363 ft 492 kts 124°
2026-04-27 23:25 38.62106 98.44421 37362 ft 491 kts 124°
2026-04-27 23:25 38.58913 98.52091 37363 ft 491 kts 125°
2026-04-27 23:26 38.55686 98.59765 37363 ft 492 kts 125°
2026-04-27 23:26 38.52449 98.67432 37364 ft 491 kts 126°
2026-04-27 23:27 38.49258 98.75082 37363 ft 489 kts 125°
2026-04-27 23:27 38.46053 98.82752 37363 ft 490 kts 125°
2026-04-27 23:28 38.42853 98.90369 37362 ft 491 kts 125°
2026-04-27 23:28 38.40157 98.96790 37364 ft 492 kts 125°
2026-04-27 23:29 38.36383 99.05701 37363 ft 493 kts 126°
2026-04-27 23:29 38.33101 99.13371 37364 ft 494 kts 126°
2026-04-27 23:30 38.29826 99.21036 37363 ft 495 kts 126°
2026-04-27 23:30 38.26553 99.28694 37363 ft 495 kts 126°
2026-04-27 23:31 38.23248 99.36410 37364 ft 496 kts 126°
2026-04-27 23:31 38.19980 99.44029 37364 ft 495 kts 126°
2026-04-27 23:32 38.16671 99.51724 37364 ft 495 kts 126°
2026-04-27 23:32 38.13387 99.59338 37363 ft 495 kts 126°
2026-04-27 23:33 38.10087 99.66980 37362 ft 495 kts 126°
2026-04-27 23:33 38.06787 99.74606 37364 ft 495 kts 126°
2026-04-27 23:34 38.03463 99.82260 37362 ft 495 kts 126°
2026-04-27 23:34 38.00157 99.89858 37363 ft 494 kts 126°
2026-04-27 23:35 37.96835 99.97472 37361 ft 495 kts 126°
2026-04-27 23:35 37.93504 100.05092 37363 ft 496 kts 126°
2026-04-27 23:36 37.90163 100.12714 37363 ft 496 kts 126°
2026-04-27 23:36 37.86844 100.20273 37363 ft 495 kts 126°
2026-04-27 23:37 37.83503 100.27859 37363 ft 495 kts 126°
2026-04-27 23:37 37.80146 100.35465 37363 ft 495 kts 126°
2026-04-27 23:38 37.76801 100.43024 37362 ft 495 kts 126°
2026-04-27 23:38 37.73446 100.50590 37362 ft 495 kts 126°
2026-04-27 23:39 37.70086 100.58150 37363 ft 495 kts 126°
2026-04-27 23:39 37.66720 100.65706 37361 ft 494 kts 127°
2026-04-27 23:40 37.63421 100.73277 37363 ft 495 kts 125°
2026-04-27 23:40 37.60254 100.80916 37363 ft 495 kts 125°
2026-04-27 23:41 37.57034 100.88564 37363 ft 495 kts 125°
2026-04-27 23:41 37.53796 100.96167 37362 ft 496 kts 126°
2026-04-27 23:42 37.50547 101.03819 37363 ft 497 kts 125°
2026-04-27 23:42 37.47306 101.11528 37362 ft 497 kts 125°
2026-04-27 23:43 37.44084 101.19163 37366 ft 497 kts 126°
2026-04-27 23:43 37.40825 101.26815 37362 ft 497 kts 126°
2026-04-27 23:44 37.37551 101.34445 37361 ft 497 kts 126°
2026-04-27 23:44 37.34280 101.42028 37362 ft 497 kts 126°
2026-04-27 23:45 37.31074 101.49699 37362 ft 501 kts 121°
2026-04-27 23:45 37.28736 101.58028 37364 ft 510 kts 111°
2026-04-27 23:46 37.26722 101.66541 37363 ft 509 kts 113°
2026-04-27 23:46 37.24683 101.75029 37362 ft 508 kts 112°
2026-04-27 23:47 37.22734 101.83483 37363 ft 509 kts 112°
2026-04-27 23:47 37.20766 101.92008 37362 ft 510 kts 112°
2026-04-27 23:48 37.18767 102.00500 37363 ft 509 kts 112°
2026-04-27 23:48 37.16772 102.09000 37364 ft 510 kts 112°
2026-04-27 23:49 37.14774 102.17503 37362 ft 509 kts 112°
2026-04-27 23:49 37.12739 102.25944 37362 ft 507 kts 114°
2026-04-27 23:50 37.09998 102.33929 37366 ft 496 kts 127°
2026-04-27 23:50 37.06447 102.41264 37363 ft 495 kts 129°
2026-04-27 23:51 37.02886 102.48644 37361 ft 494 kts 129°
2026-04-27 23:51 36.99304 102.55930 37363 ft 492 kts 130°
2026-04-27 23:52 36.95692 102.63176 37363 ft 493 kts 130°
2026-04-27 23:52 36.92076 102.70414 37361 ft 491 kts 131°
2026-04-27 23:53 36.88466 102.77600 37362 ft 490 kts 131°
2026-04-27 23:53 36.84850 102.84775 37364 ft 492 kts 131°
2026-04-27 23:54 36.81269 102.92077 37361 ft 496 kts 127°
2026-04-27 23:54 36.78257 102.99863 37364 ft 501 kts 123°
2026-04-27 23:55 36.75254 103.07671 37363 ft 502 kts 124°
2026-04-27 23:55 36.72207 103.15487 37363 ft 504 kts 123°
2026-04-27 23:56 36.69153 103.23347 37363 ft 506 kts 123°
2026-04-27 23:56 36.66104 103.31167 37363 ft 505 kts 123°
2026-04-27 23:57 36.63045 103.38996 37363 ft 504 kts 123°
2026-04-27 23:57 36.59965 103.46856 37363 ft 504 kts 123°
2026-04-27 23:58 36.56729 103.54502 37362 ft 495 kts 133°
2026-04-27 23:58 36.54624 103.57790 37364 ft 482 kts 144°
2026-04-27 23:58 36.52142 103.60449 37364 ft 466 kts 155°
2026-04-27 23:59 36.49413 103.62471 37365 ft 453 kts 164°
2026-04-27 23:59 36.46553 103.63957 37359 ft 440 kts 174°
2026-04-27 23:59 36.40712 103.65585 37362 ft 431 kts 179°
2026-04-28 00:00 36.34917 103.67274 37362 ft 430 kts 178°
2026-04-28 00:00 36.29077 103.68946 37363 ft 431 kts 179°
2026-04-28 00:01 36.23275 103.70587 37363 ft 431 kts 178°
2026-04-28 00:01 36.17433 103.72237 37363 ft 431 kts 179°
2026-04-28 00:02 36.11621 103.73871 37363 ft 431 kts 179°
2026-04-28 00:02 36.05803 103.75501 37362 ft 431 kts 178°
2026-04-28 00:03 35.99961 103.77138 37363 ft 431 kts 179°
2026-04-28 00:03 35.94149 103.78758 37208 ft 435 kts 179°
2026-04-28 00:04 35.85408 103.81200 37200 ft 431 kts 179°
2026-04-28 00:05 35.79548 103.82827 37201 ft 431 kts 178°
2026-04-28 00:05 35.73709 103.84449 37201 ft 432 kts 178°
2026-04-28 00:06 35.67874 103.86068 37201 ft 433 kts 178°
2026-04-28 00:06 35.62012 103.87692 37201 ft 432 kts 179°
2026-04-28 00:07 35.56190 103.89303 37200 ft 431 kts 179°
2026-04-28 00:07 35.50398 103.90901 37200 ft 431 kts 179°
2026-04-28 00:08 35.44529 103.92519 37201 ft 431 kts 179°
2026-04-28 00:08 35.38739 103.94113 37201 ft 431 kts 179°
2026-04-28 00:09 35.32896 103.95718 37200 ft 431 kts 178°
2026-04-28 00:09 35.27052 103.97323 37201 ft 432 kts 179°
2026-04-28 00:10 35.21197 103.98927 37202 ft 432 kts 178°
2026-04-28 00:10 35.15364 104.00523 37200 ft 432 kts 178°
2026-04-28 00:11 35.09533 104.02116 37201 ft 432 kts 179°
2026-04-28 00:11 35.03699 104.03709 37200 ft 431 kts 178°
2026-04-28 00:12 34.97848 104.05304 37201 ft 430 kts 178°
2026-04-28 00:12 34.92071 104.06875 37201 ft 430 kts 177°
2026-04-28 00:13 34.86246 104.08482 37200 ft 430 kts 176°
2026-04-28 00:13 34.80425 104.10091 37200 ft 429 kts 177°
2026-04-28 00:14 34.74606 104.11681 37202 ft 431 kts 177°
2026-04-28 00:14 34.68791 104.13257 37201 ft 430 kts 177°
2026-04-28 00:15 34.62991 104.14826 37201 ft 429 kts 177°
2026-04-28 00:15 34.57165 104.16405 37199 ft 429 kts 177°
2026-04-28 00:16 34.51379 104.17973 37199 ft 430 kts 177°
2026-04-28 00:16 34.45572 104.19537 37201 ft 430 kts 177°
2026-04-28 00:17 34.39730 104.21124 37200 ft 429 kts 177°
2026-04-28 00:17 34.33959 104.22653 37200 ft 428 kts 177°
2026-04-28 00:18 34.28122 104.24215 37201 ft 430 kts 177°
2026-04-28 00:18 34.22313 104.25726 37201 ft 430 kts 178°
2026-04-28 00:19 34.16501 104.27210 37420 ft 424 kts 177°
2026-04-28 00:19 34.10753 104.28709 37418 ft 427 kts 177°
2026-04-28 00:20 34.04942 104.30232 37418 ft 430 kts 177°
2026-04-28 00:20 33.99102 104.31773 37417 ft 431 kts 177°
2026-04-28 00:21 33.93299 104.33330 37417 ft 430 kts 177°
2026-04-28 00:21 33.87465 104.34885 37416 ft 428 kts 177°
2026-04-28 00:22 33.81694 104.36407 37416 ft 429 kts 177°
2026-04-28 00:22 33.75854 104.37940 37417 ft 430 kts 177°
2026-04-28 00:23 33.70045 104.39468 37416 ft 429 kts 177°
2026-04-28 00:23 33.64243 104.40987 37416 ft 430 kts 177°
2026-04-28 00:24 33.58411 104.42532 37408 ft 432 kts 177°
2026-04-28 00:24 33.52581 104.44081 37324 ft 431 kts 176°
2026-04-28 00:25 33.46723 104.45608 37235 ft 429 kts 177°
2026-04-28 00:25 33.40949 104.47134 37175 ft 429 kts 176°
2026-04-28 00:26 33.35148 104.48706 37174 ft 430 kts 176°
2026-04-28 00:26 33.29327 104.50274 37172 ft 430 kts 177°
2026-04-28 00:27 33.23502 104.51815 37175 ft 430 kts 177°
2026-04-28 00:27 33.17667 104.53352 37174 ft 430 kts 177°
2026-04-28 00:28 33.11850 104.54882 37174 ft 429 kts 177°
2026-04-28 00:28 33.06038 104.56390 37173 ft 431 kts 176°
2026-04-28 00:29 33.00196 104.57910 37175 ft 433 kts 175°
2026-04-28 00:29 32.94290 104.59448 37175 ft 434 kts 175°
2026-04-28 00:30 32.88444 104.60956 37174 ft 434 kts 175°
2026-04-28 00:30 32.82542 104.62483 37175 ft 436 kts 175°
2026-04-28 00:31 32.76644 104.64013 37173 ft 434 kts 175°
2026-04-28 00:31 32.70784 104.65534 37175 ft 434 kts 175°
2026-04-28 00:32 32.64910 104.67052 37174 ft 433 kts 175°
2026-04-28 00:32 32.59052 104.68578 37175 ft 434 kts 176°
2026-04-28 00:33 32.53170 104.70080 37174 ft 434 kts 176°
2026-04-28 00:33 32.47307 104.71592 37173 ft 434 kts 175°
2026-04-28 00:34 32.41425 104.73098 37175 ft 433 kts 176°
2026-04-28 00:34 32.35562 104.74592 37173 ft 433 kts 176°
2026-04-28 00:35 32.29705 104.76079 37174 ft 433 kts 175°
2026-04-28 00:35 32.23808 104.77570 37173 ft 434 kts 176°
2026-04-28 00:36 32.17966 104.79060 37173 ft 432 kts 175°
2026-04-28 00:36 32.12088 104.80553 37173 ft 434 kts 175°
2026-04-28 00:37 32.06183 104.82077 37176 ft 434 kts 175°
2026-04-28 00:37 32.00327 104.83568 37174 ft 432 kts 176°
2026-04-28 00:38 31.94457 104.84973 37176 ft 433 kts 176°
2026-04-28 00:38 31.88566 104.86397 37174 ft 433 kts 176°
2026-04-28 00:39 31.82713 104.87836 37173 ft 432 kts 176°
2026-04-28 00:39 31.76854 104.89299 37174 ft 433 kts 176°
2026-04-28 00:40 31.70977 104.90769 37174 ft 434 kts 176°
2026-04-28 00:40 31.65120 104.92247 37173 ft 434 kts 175°
2026-04-28 00:41 31.59216 104.93733 37174 ft 435 kts 175°
2026-04-28 00:41 31.53336 104.95218 37176 ft 434 kts 175°
2026-04-28 00:42 31.47418 104.96693 37173 ft 434 kts 175°
2026-04-28 00:42 31.41556 104.98172 37174 ft 435 kts 175°
2026-04-28 00:43 31.35653 104.99632 37174 ft 436 kts 175°
2026-04-28 00:43 31.29765 105.01121 37173 ft 435 kts 175°
2026-04-28 00:44 31.23851 105.02604 37175 ft 436 kts 175°
2026-04-28 00:44 31.17961 105.04085 37173 ft 435 kts 175°
2026-04-28 00:45 31.12082 105.05551 37174 ft 435 kts 175°
2026-04-28 00:45 31.06165 105.07027 37174 ft 436 kts 175°
2026-04-28 00:46 31.00241 105.08551 37175 ft 437 kts 174°
2026-04-28 00:46 30.94335 105.10055 37174 ft 438 kts 173°
2026-04-28 00:47 30.88409 105.11540 37173 ft 437 kts 173°
2026-04-28 00:47 30.82467 105.13018 37174 ft 438 kts 173°
2026-04-28 00:48 30.76541 105.14491 37173 ft 437 kts 173°
2026-04-28 00:48 30.70618 105.15945 37174 ft 437 kts 173°
2026-04-28 00:49 30.64718 105.17398 37175 ft 437 kts 173°
2026-04-28 00:49 30.58786 105.18863 37174 ft 437 kts 173°
2026-04-28 00:50 30.52867 105.20320 37173 ft 436 kts 173°
2026-04-28 00:50 30.46939 105.21780 37173 ft 437 kts 172°
2026-04-28 00:51 30.41029 105.23234 37173 ft 436 kts 173°
2026-04-28 00:51 30.35084 105.24684 37156 ft 437 kts 173°
2026-04-28 00:52 30.29182 105.26129 37125 ft 438 kts 173°
2026-04-28 00:52 30.23229 105.27585 37089 ft 438 kts 172°
2026-04-28 00:53 30.17316 105.29038 37080 ft 437 kts 173°
2026-04-28 00:53 30.11377 105.30424 37072 ft 437 kts 173°
2026-04-28 00:54 30.05482 105.31827 37063 ft 438 kts 173°
2026-04-28 00:54 29.99540 105.33263 37054 ft 436 kts 173°
2026-04-28 00:55 29.93619 105.34692 37047 ft 437 kts 173°
2026-04-28 00:55 29.87689 105.36121 37038 ft 438 kts 173°
2026-04-28 00:56 29.81743 105.37565 37038 ft 437 kts 172°
2026-04-28 00:56 29.75811 105.39004 37038 ft 437 kts 173°
2026-04-28 00:57 29.69879 105.40424 37039 ft 437 kts 173°
2026-04-28 00:57 29.63941 105.41867 37038 ft 437 kts 172°
2026-04-28 00:58 29.58034 105.43345 37038 ft 437 kts 172°
2026-04-28 00:58 29.52134 105.44788 37038 ft 436 kts 173°
2026-04-28 00:59 29.46183 105.46191 37039 ft 436 kts 173°
2026-04-28 00:59 29.40269 105.47588 37038 ft 438 kts 173°